TAF LDSP 230525Z 2306/2406 VRB02KT 9999 SCT030
                 TX19/2312Z TN12/2404Z
           TEMPO 2306/2312 RA
    PROB30 TEMPO 2308/2313 SHRA FEW025TCU SCT030
           BECMG 2316/2318 05008KT=
TAF LDSP 222325Z 2300/2400 VRB02KT 9999 SCT030
                 TX19/2312Z TN12/2323Z
           TEMPO 2300/2313 RA
    PROB30 TEMPO 2305/2315 SHRA FEW025TCU SCT030=
TAF LDSP 221725Z 2218/2318 35005KT 9999 FEW025 BKN035
                 TX19/2313Z TN15/2306Z
    PROB40 TEMPO 2218/2313 06010KT
    PROB30 TEMPO 2220/2304 TSRA FEW025CB BKN030
    PROB40 TEMPO 2304/2313 VRB15G25KT 2000 +TSRA FEW010 SCT020CB BKN030=
TAF LDSP 221125Z 2212/2312 11008KT 9999 SCT020 BKN025
                 TX21/2212Z TN15/2306Z
    PROB30 TEMPO 2212/2222 TSRA FEW020CB BKN025
    PROB40 TEMPO 2218/2222 BKN012
    PROB40 TEMPO 2222/2306 4000 TSRA SCT020CB BKN025=
TAF LDSP 220525Z 2206/2306 11008KT 9999 SCT020 BKN025
                 TX20/2213Z TN15/2305Z
    PROB40 TEMPO 2206/2211 11012KT
    PROB30 TEMPO 2211/2300 4000 TSRA SCT010 FEW020CB BKN023
    PROB40 TEMPO 2212/2300 4000 RA=
TAF LDSP 212325Z 2200/2300 11010KT 9999 SCT040
                 TX20/2211Z TN16/2205Z
    PROB30 TEMPO 2210/2216 TSRA FEW020CB BKN030
           BECMG 2213/2215 12006KT
    PROB40 TEMPO 2216/2300 TSRA FEW020CB BKN030
    PROB30 TEMPO 2216/2300 RA BKN010=
TAF AMD LDSP 211929Z 2119/2218 11010KT 9999 FEW030 SCT040
                     TX20/2211Z TN16/2205Z
               TEMPO 2119/2123 05006KT
        PROB30 TEMPO 2207/2218 TSRA FEW020CB BKN030
              PROB40 2212/2218 17006KT=